Time;durP1;ratioP1;P1;durP2;ratioP2;P2;SDS_P1;SDS_P2;PMS_P1;PMS_P2;Temp;Humidity;BMP_temperature;BMP_pressure;BME280_temperature;BME280_humidity;BME280_pressure;Samples;Min_cycle;Max_cycle;Signal;HPM_P1;HPM_P2
2022/11/06 00:00:45;;;;;;;17.40;12.73;;;7.70;99.90;;;;;;5098257;28;21057;-69
2022/11/06 00:03:12;;;;;;;12.47;11.60;;;7.70;99.90;;;;;;5094306;28;20860;-70
2022/11/06 00:08:28;;;;;;;12.43;11.63;;;7.70;99.90;;;;;;5096911;28;20468;-69
2022/11/06 00:10:56;;;;;;;13.20;11.43;;;7.60;99.90;;;;;;5098193;28;20458;-67
2022/11/06 00:13:23;;;;;;;12.07;11.17;;;7.60;99.90;;;;;;5093619;28;20543;-69
2022/11/06 00:15:49;;;;;;;11.73;10.87;;;7.50;99.90;;;;;;5099498;28;20862;-71
2022/11/06 00:18:17;;;;;;;13.13;12.03;;;7.50;99.90;;;;;;5101733;28;20543;-69
2022/11/06 00:20:46;;;;;;;12.43;11.53;;;7.50;99.90;;;;;;5098949;28;20860;-69
2022/11/06 00:23:13;;;;;;;11.93;11.10;;;7.50;99.90;;;;;;5099326;28;20477;-71
2022/11/06 00:25:41;;;;;;;12.73;11.53;;;7.50;99.90;;;;;;5096869;28;20566;-69
2022/11/06 00:28:08;;;;;;;12.60;11.10;;;7.50;99.90;;;;;;5097117;28;20489;-72
2022/11/06 00:30:35;;;;;;;12.20;11.30;;;7.50;99.90;;;;;;5094714;28;20941;-70
2022/11/06 00:33:03;;;;;;;11.80;10.87;;;7.50;99.90;;;;;;5097013;28;20462;-71
2022/11/06 00:35:30;;;;;;;11.90;10.87;;;7.50;99.90;;;;;;5099881;28;20484;-71
2022/11/06 00:37:58;;;;;;;11.10;10.30;;;7.50;99.90;;;;;;5093389;28;20492;-68
2022/11/06 00:40:26;;;;;;;14.70;12.03;;;7.50;99.90;;;;;;5098975;28;20470;-69
2022/11/06 00:42:57;;;;;;;12.63;10.47;;;7.40;99.90;;;;;;5096025;28;20469;-71
2022/11/06 00:45:25;;;;;;;10.30;9.50;;;7.40;99.90;;;;;;5098799;28;20464;-71
2022/11/06 00:47:52;;;;;;;11.47;10.57;;;7.40;99.90;;;;;;5095035;28;20465;-69
2022/11/06 00:50:19;;;;;;;16.27;11.53;;;7.40;99.90;;;;;;5100235;28;20513;-70
2022/11/06 00:52:45;;;;;;;12.20;11.10;;;7.40;99.90;;;;;;5099582;28;20828;-68
2022/11/06 00:55:14;;;;;;;13.03;11.00;;;7.40;99.90;;;;;;5097683;28;20478;-69
2022/11/06 00:57:41;;;;;;;10.77;9.97;;;7.40;99.90;;;;;;5099339;28;20496;-71
2022/11/06 01:00:10;;;;;;;10.90;10.20;;;7.40;99.90;;;;;;5091922;28;20457;-70
2022/11/06 01:02:38;;;;;;;11.13;10.13;;;7.40;99.90;;;;;;5098869;28;20955;-68
2022/11/06 01:05:06;;;;;;;11.00;9.70;;;7.40;99.90;;;;;;5095958;28;21027;-68
2022/11/06 01:07:34;;;;;;;10.77;9.67;;;7.40;99.90;;;;;;5098127;28;20468;-71
2022/11/06 01:10:00;;;;;;;13.83;10.40;;;7.40;99.90;;;;;;5093998;28;20876;-70
2022/11/06 01:12:31;;;;;;;12.60;11.30;;;7.40;99.90;;;;;;5098647;28;20486;-69
2022/11/06 01:14:57;;;;;;;12.80;10.97;;;7.40;99.90;;;;;;5096604;28;20464;-71
2022/11/06 01:17:24;;;;;;;11.60;10.63;;;7.40;99.90;;;;;;5096946;28;20494;-69
2022/11/06 01:19:51;;;;;;;11.50;10.63;;;7.40;99.90;;;;;;5098062;28;20543;-69
2022/11/06 01:22:19;;;;;;;12.50;11.30;;;7.30;99.90;;;;;;5093955;28;20462;-71
2022/11/06 01:24:46;;;;;;;12.47;11.60;;;7.30;99.90;;;;;;5097016;28;21063;-70
2022/11/06 01:27:13;;;;;;;14.03;12.40;;;7.30;99.90;;;;;;5100426;28;20469;-70
2022/11/06 01:29:42;;;;;;;14.17;12.37;;;7.30;99.90;;;;;;5094920;28;20461;-68
2022/11/06 01:32:10;;;;;;;17.90;12.40;;;7.30;99.90;;;;;;5092181;28;20490;-68
2022/11/06 01:34:37;;;;;;;12.50;11.60;;;7.30;99.90;;;;;;5097359;28;20532;-72
2022/11/06 01:37:04;;;;;;;13.50;11.60;;;7.30;99.90;;;;;;5098009;28;20464;-70
2022/11/06 01:39:31;;;;;;;12.80;11.67;;;7.30;99.90;;;;;;5105630;28;20803;-70
2022/11/06 01:41:58;;;;;;;13.63;12.20;;;7.30;99.90;;;;;;5099399;28;20461;-70
2022/11/06 01:45:16;;;;;;;14.63;11.80;;;7.30;99.90;;;;;;5096895;28;20457;-71
2022/11/06 01:47:43;;;;;;;13.37;10.90;;;7.30;99.90;;;;;;5092775;28;20554;-70
2022/11/06 01:50:12;;;;;;;12.73;11.50;;;7.30;99.90;;;;;;5092999;28;20593;-71
2022/11/06 01:52:41;;;;;;;11.83;10.80;;;7.30;99.90;;;;;;5100328;28;20493;-70
2022/11/06 01:55:12;;;;;;;12.30;11.03;;;7.30;99.90;;;;;;5091362;28;20479;-71
2022/11/06 01:57:39;;;;;;;11.23;10.43;;;7.30;99.90;;;;;;5099596;28;20488;-69
2022/11/06 02:00:09;;;;;;;11.50;10.40;;;7.30;99.90;;;;;;5099544;28;20478;-71
2022/11/06 02:02:38;;;;;;;12.23;11.00;;;7.30;99.90;;;;;;5098381;28;20463;-69
2022/11/06 02:05:06;;;;;;;10.40;9.40;;;7.40;99.90;;;;;;5098739;28;20826;-70
2022/11/06 02:07:34;;;;;;;16.97;10.00;;;7.50;99.90;;;;;;5100642;28;20936;-68
2022/11/06 02:10:02;;;;;;;10.63;9.47;;;7.60;99.90;;;;;;5098100;28;20461;-71
2022/11/06 02:12:40;;;;;;;9.70;8.90;;;7.80;99.90;;;;;;5105808;28;20461;-71
2022/11/06 02:15:14;;;;;;;10.00;9.40;;;7.80;99.90;;;;;;5101463;28;20467;-71
2022/11/06 02:17:55;;;;;;;12.33;9.87;;;7.90;99.90;;;;;;5098564;28;20484;-69
2022/11/06 02:20:30;;;;;;;10.27;9.50;;;7.80;99.90;;;;;;5100768;28;20670;-71
2022/11/06 02:23:10;;;;;;;10.73;9.77;;;7.80;99.90;;;;;;5101222;28;20464;-71
2022/11/06 02:25:46;;;;;;;9.57;8.80;;;7.90;99.90;;;;;;5101536;28;20460;-70
2022/11/06 02:28:21;;;;;;;10.10;9.40;;;7.90;99.90;;;;;;5103020;28;20480;-70
2022/11/06 02:30:49;;;;;;;15.27;8.80;;;7.90;99.90;;;;;;5104275;28;20459;-68
2022/11/06 02:33:22;;;;;;;11.90;9.37;;;7.90;99.90;;;;;;5102056;28;20919;-71
2022/11/06 02:35:53;;;;;;;12.13;10.23;;;7.90;99.90;;;;;;5100861;28;20462;-70
2022/11/06 02:38:25;;;;;;;14.43;10.50;;;7.90;99.90;;;;;;5098258;28;20488;-68
2022/11/06 02:40:56;;;;;;;14.40;10.43;;;7.90;99.90;;;;;;5100317;28;20472;-71
2022/11/06 02:43:28;;;;;;;9.83;9.20;;;7.90;99.90;;;;;;5094409;28;20468;-69
2022/11/06 02:45:57;;;;;;;10.40;9.60;;;7.80;99.90;;;;;;5099898;28;20458;-69
2022/11/06 02:48:31;;;;;;;12.13;9.43;;;7.80;99.90;;;;;;5105874;28;20473;-69
2022/11/06 02:51:01;;;;;;;11.13;10.23;;;7.80;99.90;;;;;;5105506;28;20463;-69
2022/11/06 02:53:31;;;;;;;10.30;9.47;;;7.70;99.90;;;;;;5098451;28;20543;-68
2022/11/06 02:56:05;;;;;;;10.27;9.43;;;7.70;99.90;;;;;;5095865;28;20470;-70
2022/11/06 02:58:38;;;;;;;11.90;10.57;;;7.60;99.90;;;;;;5103174;28;20497;-68
2022/11/06 03:01:12;;;;;;;11.10;10.00;;;7.60;99.90;;;;;;5097234;28;20837;-72
2022/11/06 03:03:44;;;;;;;10.90;9.90;;;7.60;99.90;;;;;;5099279;28;20519;-67
2022/11/06 03:06:15;;;;;;;14.33;9.60;;;7.60;99.90;;;;;;5099118;28;20466;-69
2022/11/06 03:08:48;;;;;;;10.73;9.70;;;7.50;99.90;;;;;;5094931;28;20469;-70
2022/11/06 03:11:22;;;;;;;12.37;11.03;;;7.50;99.90;;;;;;5102167;28;20524;-71
2022/11/06 03:13:56;;;;;;;10.70;10.00;;;7.50;99.90;;;;;;5102586;28;20483;-68
2022/11/06 03:16:33;;;;;;;11.57;10.47;;;7.40;99.90;;;;;;5103167;28;20566;-70
2022/11/06 03:19:07;;;;;;;10.37;9.37;;;7.40;99.90;;;;;;5103285;28;20898;-68
2022/11/06 03:21:42;;;;;;;10.60;9.90;;;7.40;99.90;;;;;;5102455;28;20461;-71
2022/11/06 03:24:14;;;;;;;9.77;9.10;;;7.40;99.90;;;;;;5099586;28;20509;-71
2022/11/06 03:26:45;;;;;;;10.80;10.00;;;7.40;99.90;;;;;;5092478;28;20794;-69
2022/11/06 03:29:19;;;;;;;13.13;9.47;;;7.40;99.90;;;;;;5100085;28;20459;-68
2022/11/06 03:31:50;;;;;;;11.23;10.30;;;7.40;99.90;;;;;;5097086;28;20970;-69
2022/11/06 03:34:24;;;;;;;10.93;10.00;;;7.40;99.90;;;;;;5096120;28;20565;-69
2022/11/06 03:36:56;;;;;;;10.23;8.47;;;7.60;99.90;;;;;;5102700;28;20458;-71
2022/11/06 03:39:28;;;;;;;10.00;9.30;;;7.70;99.90;;;;;;5100403;28;20492;-69
2022/11/06 03:41:59;;;;;;;9.60;8.77;;;7.80;99.90;;;;;;5097891;28;20463;-71
2022/11/06 03:44:30;;;;;;;10.30;8.90;;;7.90;99.90;;;;;;5096253;28;20857;-69
2022/11/06 03:47:02;;;;;;;10.40;9.23;;;7.90;99.90;;;;;;5100253;28;20815;-69
2022/11/06 03:49:35;;;;;;;13.03;9.73;;;7.90;99.90;;;;;;5104288;28;20465;-70
2022/11/06 03:52:06;;;;;;;10.27;9.23;;;7.80;99.90;;;;;;5104370;28;20457;-72
2022/11/06 03:54:39;;;;;;;9.70;8.70;;;7.80;99.90;;;;;;5093414;28;20537;-72
2022/11/06 03:57:13;;;;;;;16.27;10.20;;;7.70;99.90;;;;;;5095523;28;20457;-70
2022/11/06 03:59:46;;;;;;;11.73;9.50;;;7.70;99.90;;;;;;5092988;28;21218;-68
2022/11/06 04:02:15;;;;;;;10.00;8.93;;;7.60;99.90;;;;;;5096998;28;20475;-70
2022/11/06 04:04:46;;;;;;;9.60;8.90;;;7.50;99.90;;;;;;5099193;28;20989;-67
2022/11/06 04:07:16;;;;;;;18.87;11.07;;;7.40;99.90;;;;;;5098441;28;20469;-71
2022/11/06 04:15:21;;;;;;;9.53;8.83;;;7.30;99.90;;;;;;5100997;28;20529;-69
2022/11/06 04:17:48;;;;;;;13.63;11.10;;;7.20;99.90;;;;;;5100737;28;20467;-68
2022/11/06 04:23:08;;;;;;;9.87;8.90;;;7.10;99.90;;;;;;5097384;28;20443;-69
2022/11/06 04:28:32;;;;;;;14.33;9.20;;;7.20;99.90;;;;;;5101199;28;21038;-69
2022/11/06 04:31:06;;;;;;;16.67;9.37;;;7.30;99.90;;;;;;5095426;28;20950;-71
2022/11/06 04:33:40;;;;;;;13.30;9.03;;;7.30;99.90;;;;;;5095228;28;20524;-69
2022/11/06 04:36:14;;;;;;;10.23;9.03;;;7.40;99.90;;;;;;5097293;28;20903;-68
2022/11/06 04:38:47;;;;;;;8.83;7.93;;;7.40;99.90;;;;;;5092931;28;20485;-69
2022/11/06 04:41:20;;;;;;;12.10;9.20;;;7.30;99.90;;;;;;5096875;28;20825;-71
2022/11/06 04:43:51;;;;;;;12.70;8.63;;;7.40;99.90;;;;;;5102682;28;20525;-69
2022/11/06 04:46:23;;;;;;;11.13;8.03;;;7.30;99.90;;;;;;5102261;28;20491;-69
2022/11/06 04:48:52;;;;;;;9.80;8.70;;;7.40;99.90;;;;;;5097885;28;20464;-69
2022/11/06 04:51:23;;;;;;;10.33;9.30;;;7.30;99.90;;;;;;5100201;28;20559;-67
2022/11/06 04:53:53;;;;;;;28.07;9.93;;;7.30;99.90;;;;;;5093742;28;20579;-71
2022/11/06 04:56:23;;;;;;;20.53;9.67;;;7.20;99.90;;;;;;5100522;28;20462;-71
2022/11/06 04:58:50;;;;;;;9.90;9.10;;;7.10;99.90;;;;;;5100288;28;20515;-68
2022/11/06 05:01:17;;;;;;;14.20;9.47;;;7.20;99.90;;;;;;5094511;28;20921;-71
2022/11/06 05:03:45;;;;;;;13.27;9.97;;;7.20;99.90;;;;;;5091024;28;20464;-71
2022/11/06 05:06:13;;;;;;;10.07;9.23;;;7.10;99.90;;;;;;5091176;28;20463;-69
2022/11/06 05:08:40;;;;;;;13.13;9.70;;;7.10;99.90;;;;;;5097062;28;20674;-68
2022/11/06 05:11:07;;;;;;;14.40;10.10;;;7.00;99.90;;;;;;5094329;28;20492;-71
2022/11/06 05:13:34;;;;;;;16.90;9.47;;;7.00;99.90;;;;;;5095954;28;20448;-70
2022/11/06 05:16:01;;;;;;;10.00;9.30;;;7.10;99.90;;;;;;5100624;28;20892;-71
2022/11/06 05:18:28;;;;;;;9.90;9.10;;;7.00;99.90;;;;;;5099226;28;20485;-70
2022/11/06 05:23:40;;;;;;;9.87;8.70;;;7.10;99.90;;;;;;5098755;28;20507;-70
2022/11/06 05:26:08;;;;;;;10.60;8.20;;;7.00;99.90;;;;;;5100678;28;20865;-71
2022/11/06 05:28:35;;;;;;;9.27;8.20;;;7.00;99.90;;;;;;5101492;28;20953;-69
2022/11/06 05:31:02;;;;;;;9.70;8.73;;;7.10;99.90;;;;;;5096521;28;20465;-71
2022/11/06 05:33:29;;;;;;;11.47;8.30;;;7.10;99.90;;;;;;5093329;28;20563;-70
2022/11/06 05:36:01;;;;;;;8.60;8.00;;;7.10;99.90;;;;;;5095515;28;20554;-69
2022/11/06 05:38:28;;;;;;;12.40;8.43;;;7.10;99.90;;;;;;5099496;28;21296;-69
2022/11/06 05:40:55;;;;;;;10.60;7.23;;;7.10;99.90;;;;;;5105075;28;20452;-68
2022/11/06 05:43:21;;;;;;;10.73;8.20;;;7.10;99.90;;;;;;5097100;28;20457;-71
2022/11/06 05:45:49;;;;;;;9.70;9.00;;;7.10;99.90;;;;;;5102868;28;20461;-71
2022/11/06 05:48:16;;;;;;;8.53;7.80;;;7.10;99.90;;;;;;5099277;28;20814;-69
2022/11/06 05:50:44;;;;;;;8.90;8.00;;;7.10;99.90;;;;;;5096767;28;20518;-71
2022/11/06 05:53:12;;;;;;;18.10;8.20;;;7.10;99.90;;;;;;5103412;28;21039;-68
2022/11/06 05:55:39;;;;;;;14.07;8.47;;;7.10;99.90;;;;;;5105447;28;20563;-71
2022/11/06 05:58:06;;;;;;;12.00;7.80;;;7.20;99.90;;;;;;5100380;28;20468;-71
2022/11/06 06:00:33;;;;;;;9.33;7.70;;;7.10;99.90;;;;;;5103446;28;21288;-70
2022/11/06 06:03:02;;;;;;;15.13;7.33;;;7.20;99.90;;;;;;5103582;28;20453;-69
2022/11/06 06:05:28;;;;;;;10.53;8.70;;;7.10;99.90;;;;;;5097477;28;20458;-68
2022/11/06 06:07:55;;;;;;;9.13;7.43;;;7.10;99.90;;;;;;5101374;28;20463;-67
2022/11/06 06:10:24;;;;;;;11.80;7.50;;;7.10;99.90;;;;;;5097443;28;20468;-71
2022/11/06 06:12:52;;;;;;;8.83;7.80;;;7.10;99.90;;;;;;5099330;28;20511;-70
2022/11/06 06:15:19;;;;;;;14.13;8.77;;;7.10;99.90;;;;;;5098182;28;20472;-70
2022/11/06 06:17:46;;;;;;;7.40;6.90;;;7.00;99.90;;;;;;5103482;28;20470;-69
2022/11/06 06:20:13;;;;;;;10.47;7.70;;;7.10;99.90;;;;;;5101061;28;20499;-68
2022/11/06 06:22:40;;;;;;;13.07;8.63;;;7.00;99.90;;;;;;5099317;28;20492;-70
2022/11/06 06:25:07;;;;;;;7.83;7.33;;;7.00;99.90;;;;;;5100564;28;20529;-69
2022/11/06 06:27:37;;;;;;;8.73;8.10;;;7.10;99.90;;;;;;5096377;28;20463;-70
2022/11/06 06:30:05;;;;;;;14.13;8.53;;;7.10;99.90;;;;;;5103656;28;20465;-69
2022/11/06 06:32:33;;;;;;;10.10;8.50;;;7.20;99.90;;;;;;5102816;28;20605;-70
2022/11/06 06:35:01;;;;;;;8.33;6.83;;;7.20;99.90;;;;;;5100272;28;20811;-70
2022/11/06 06:37:28;;;;;;;7.60;7.10;;;7.30;99.90;;;;;;5098539;28;20473;-68
2022/11/06 06:39:55;;;;;;;11.13;6.60;;;7.30;99.90;;;;;;5103555;28;20872;-67
2022/11/06 06:42:21;;;;;;;8.53;7.73;;;7.30;99.90;;;;;;5103172;28;20465;-70
2022/11/06 06:44:49;;;;;;;7.57;6.90;;;7.30;99.90;;;;;;5103704;27;20464;-68
2022/11/06 06:47:17;;;;;;;8.23;7.47;;;7.40;99.90;;;;;;5100870;28;20971;-69
2022/11/06 06:49:43;;;;;;;11.13;6.87;;;7.40;99.90;;;;;;5096331;28;20474;-71
2022/11/06 06:52:10;;;;;;;11.23;8.17;;;7.40;99.90;;;;;;5099419;28;20460;-69
2022/11/06 06:54:37;;;;;;;8.27;6.30;;;7.40;99.90;;;;;;5098411;28;20500;-69
2022/11/06 06:57:05;;;;;;;10.90;7.27;;;7.40;99.90;;;;;;5101293;28;20460;-69
2022/11/06 06:59:32;;;;;;;7.70;6.37;;;7.40;99.90;;;;;;5098017;28;20486;-71
2022/11/06 07:02:00;;;;;;;7.77;6.60;;;7.40;99.90;;;;;;5094800;28;20809;-68
2022/11/06 07:04:27;;;;;;;14.27;7.40;;;7.40;99.90;;;;;;5100704;28;20827;-68
2022/11/06 07:06:54;;;;;;;8.27;7.27;;;7.40;99.90;;;;;;5101624;28;20457;-69
2022/11/06 07:09:22;;;;;;;13.77;7.20;;;7.40;99.90;;;;;;5101206;28;20480;-70
2022/11/06 07:11:49;;;;;;;8.53;6.40;;;7.40;99.90;;;;;;5104319;28;20564;-71
2022/11/06 07:14:16;;;;;;;10.10;6.43;;;7.40;99.90;;;;;;5095344;28;20463;-68
2022/11/06 07:16:43;;;;;;;8.23;6.90;;;7.40;99.90;;;;;;5097242;28;20951;-71
2022/11/06 07:19:11;;;;;;;11.87;6.40;;;7.50;99.90;;;;;;5103190;28;20874;-70
2022/11/06 07:21:38;;;;;;;14.43;6.97;;;7.60;99.90;;;;;;5103396;28;20466;-68
2022/11/06 07:24:06;;;;;;;7.97;6.63;;;7.60;99.90;;;;;;5100765;28;21037;-68
2022/11/06 07:26:33;;;;;;;7.10;6.30;;;7.70;99.90;;;;;;5101573;28;20461;-71
2022/11/06 07:29:00;;;;;;;8.07;7.00;;;7.80;99.90;;;;;;5098276;28;20458;-68
2022/11/06 07:31:26;;;;;;;8.40;6.80;;;7.90;99.90;;;;;;5097279;28;20859;-70
2022/11/06 07:33:53;;;;;;;14.07;6.90;;;8.00;99.90;;;;;;5097508;28;20883;-70
2022/11/06 07:36:21;;;;;;;16.00;6.90;;;8.10;99.90;;;;;;5096314;28;20462;-68
2022/11/06 07:38:48;;;;;;;7.27;6.70;;;8.20;99.90;;;;;;5097474;28;20469;-68
2022/11/06 07:41:15;;;;;;;7.67;6.87;;;8.30;99.90;;;;;;5098196;28;20512;-69
2022/11/06 07:43:43;;;;;;;10.20;6.80;;;8.40;99.90;;;;;;5098888;28;20947;-70
2022/11/06 07:46:12;;;;;;;9.00;6.50;;;8.50;99.90;;;;;;5098930;28;20462;-71
2022/11/06 07:48:39;;;;;;;9.90;7.80;;;8.50;99.90;;;;;;5100536;28;20464;-70
2022/11/06 07:51:08;;;;;;;9.03;7.70;;;8.50;99.90;;;;;;5096583;28;20478;-68
2022/11/06 07:53:37;;;;;;;8.57;6.73;;;8.60;99.90;;;;;;5097917;28;20851;-68
2022/11/06 07:56:03;;;;;;;9.50;7.40;;;8.60;99.90;;;;;;5092444;28;20955;-70
2022/11/06 07:58:31;;;;;;;12.03;8.57;;;8.60;99.90;;;;;;5101650;28;20795;-69
2022/11/06 08:00:58;;;;;;;7.97;7.23;;;8.80;99.90;;;;;;5098510;28;20567;-68
2022/11/06 08:03:28;;;;;;;9.37;7.30;;;8.80;99.90;;;;;;5101514;28;20457;-68
2022/11/06 08:05:56;;;;;;;14.83;8.30;;;9.00;99.90;;;;;;5092308;28;20469;-71
2022/11/06 08:08:22;;;;;;;15.20;8.30;;;9.10;99.90;;;;;;5097370;28;21057;-69
2022/11/06 08:10:52;;;;;;;11.80;8.23;;;9.20;99.90;;;;;;5089625;28;20477;-68
2022/11/06 08:13:19;;;;;;;10.73;7.90;;;9.30;99.90;;;;;;5097123;28;20878;-68
2022/11/06 08:15:46;;;;;;;21.07;8.90;;;9.40;99.90;;;;;;5092659;28;20471;-68
2022/11/06 08:18:13;;;;;;;11.63;8.60;;;9.50;99.90;;;;;;5099218;28;20472;-69
2022/11/06 08:20:40;;;;;;;9.10;8.30;;;9.70;99.90;;;;;;5094857;28;20492;-68
2022/11/06 08:23:10;;;;;;;9.23;8.50;;;9.80;99.90;;;;;;5101226;28;20537;-70
2022/11/06 08:25:37;;;;;;;9.20;8.53;;;9.90;99.90;;;;;;5093725;28;20462;-69
2022/11/06 08:28:06;;;;;;;10.07;9.27;;;10.00;99.90;;;;;;5096019;28;20465;-70
2022/11/06 08:30:33;;;;;;;12.47;10.00;;;10.10;99.90;;;;;;5092415;28;21027;-68
2022/11/06 08:33:02;;;;;;;12.27;9.67;;;10.20;99.90;;;;;;5101271;28;20510;-70
2022/11/06 08:35:29;;;;;;;10.23;9.50;;;10.30;99.90;;;;;;5093734;28;20480;-70
2022/11/06 08:37:57;;;;;;;11.17;10.37;;;10.30;99.90;;;;;;5097894;28;21348;-69
2022/11/06 08:40:24;;;;;;;10.60;9.73;;;10.40;99.90;;;;;;5099490;28;20574;-71
2022/11/06 08:42:51;;;;;;;11.57;10.67;;;10.40;99.90;;;;;;5096061;28;20470;-68
2022/11/06 08:45:19;;;;;;;12.10;10.33;;;10.40;99.90;;;;;;5096976;28;20468;-67
2022/11/06 08:47:46;;;;;;;11.73;10.30;;;10.50;99.90;;;;;;5096950;28;20454;-71
2022/11/06 08:50:12;;;;;;;11.13;10.37;;;10.60;99.90;;;;;;5100514;28;21179;-68
2022/11/06 08:52:39;;;;;;;11.17;10.13;;;10.60;99.90;;;;;;5099868;28;20611;-68
2022/11/06 08:55:06;;;;;;;12.07;10.23;;;10.70;99.90;;;;;;5096109;28;20496;-68
2022/11/06 08:57:33;;;;;;;11.23;10.20;;;10.80;99.90;;;;;;5097920;28;20458;-68
2022/11/06 09:00:00;;;;;;;10.30;9.60;;;11.00;99.90;;;;;;5090800;28;20489;-69
2022/11/06 09:02:28;;;;;;;12.20;10.37;;;11.10;99.90;;;;;;5085073;28;20457;-68
2022/11/06 09:04:55;;;;;;;11.20;10.40;;;11.20;99.90;;;;;;5088494;28;20846;-69
2022/11/06 09:07:22;;;;;;;11.20;10.20;;;11.30;99.90;;;;;;5092346;28;20476;-68
2022/11/06 09:09:49;;;;;;;10.60;9.63;;;11.40;99.90;;;;;;5092764;28;20500;-68
2022/11/06 09:12:16;;;;;;;11.40;10.40;;;11.50;99.90;;;;;;5094956;28;20564;-68
2022/11/06 09:14:42;;;;;;;12.70;11.53;;;11.60;99.90;;;;;;5099657;28;20458;-70
2022/11/06 09:17:09;;;;;;;13.30;11.50;;;11.90;99.90;;;;;;5105502;28;20854;-68
2022/11/06 09:19:38;;;;;;;12.50;11.00;;;11.90;99.90;;;;;;5096189;28;20779;-71
2022/11/06 09:22:07;;;;;;;13.17;11.33;;;12.00;99.90;;;;;;5098879;28;20462;-68
2022/11/06 09:24:33;;;;;;;11.30;10.60;;;12.00;99.90;;;;;;5092848;28;20513;-68
2022/11/06 09:27:00;;;;;;;12.17;11.37;;;12.10;99.90;;;;;;5094336;28;20473;-68
2022/11/06 09:29:27;;;;;;;12.53;11.70;;;12.20;99.90;;;;;;5099673;28;20453;-68
2022/11/06 09:31:54;;;;;;;12.67;11.50;;;12.10;99.90;;;;;;5094817;28;20469;-68
2022/11/06 09:34:20;;;;;;;12.37;11.23;;;12.20;99.90;;;;;;5094730;28;20509;-68
2022/11/06 09:36:50;;;;;;;14.27;13.20;;;12.20;99.90;;;;;;5096829;28;20455;-68
2022/11/06 09:39:17;;;;;;;12.93;11.70;;;12.20;99.90;;;;;;5098253;28;20453;-68
2022/11/06 09:41:53;;;;;;;12.97;11.87;;;12.30;99.90;;;;;;5094384;28;20872;-68
2022/11/06 09:44:39;;;;;;;12.53;11.70;;;12.40;99.90;;;;;;5094510;28;20479;-69
2022/11/06 09:47:17;;;;;;;12.73;11.80;;;12.60;99.90;;;;;;5087916;28;20473;-68
2022/11/06 09:49:49;;;;;;;13.03;11.80;;;12.70;99.90;;;;;;5092469;28;20812;-68
2022/11/06 09:52:22;;;;;;;13.70;12.20;;;12.80;99.90;;;;;;5096211;28;20473;-70
2022/11/06 09:54:53;;;;;;;11.60;10.90;;;13.00;99.90;;;;;;5095468;28;20908;-69
2022/11/06 09:57:26;;;;;;;13.73;12.10;;;13.10;99.90;;;;;;5097671;28;20469;-68
2022/11/06 09:59:53;;;;;;;12.33;11.40;;;13.00;99.90;;;;;;5095159;28;20490;-70
2022/11/06 10:02:28;;;;;;;12.27;11.40;;;13.10;99.90;;;;;;5092304;28;20458;-68
2022/11/06 10:05:03;;;;;;;13.10;11.03;;;13.30;99.90;;;;;;5095396;28;20458;-68
2022/11/06 10:07:35;;;;;;;12.90;12.00;;;13.30;99.90;;;;;;5094606;28;20469;-68
2022/11/06 10:10:03;;;;;;;12.47;11.40;;;13.30;99.90;;;;;;5092988;28;20771;-68
2022/11/06 10:12:40;;;;;;;12.50;11.43;;;13.50;99.90;;;;;;5094534;28;20551;-70
2022/11/06 10:15:18;;;;;;;12.00;11.03;;;13.60;99.90;;;;;;5093875;28;20543;-70
2022/11/06 10:17:54;;;;;;;13.30;12.20;;;13.50;99.90;;;;;;5092082;27;20461;-70
2022/11/06 10:20:30;;;;;;;12.00;11.30;;;13.60;99.90;;;;;;5095669;28;20600;-68
2022/11/06 10:23:15;;;;;;;11.80;11.00;;;13.60;99.90;;;;;;5092272;28;20511;-68
2022/11/06 10:25:52;;;;;;;12.73;11.50;;;13.70;99.90;;;;;;5090696;28;20458;-68
2022/11/06 10:28:39;;;;;;;16.00;11.70;;;13.70;99.90;;;;;;5093541;28;20841;-68
2022/11/06 10:31:14;;;;;;;12.57;11.23;;;14.00;99.90;;;;;;5098027;28;20460;-68
2022/11/06 10:33:52;;;;;;;12.73;11.83;;;14.10;99.90;;;;;;5095518;28;20477;-68
2022/11/06 10:36:26;;;;;;;12.57;11.77;;;14.20;99.90;;;;;;5098401;28;20453;-68
2022/11/06 10:38:58;;;;;;;12.47;11.37;;;14.10;99.90;;;;;;5097785;28;20514;-68
2022/11/06 10:41:31;;;;;;;12.30;11.40;;;14.20;99.90;;;;;;5097944;28;20549;-68
2022/11/06 10:44:02;;;;;;;12.37;11.67;;;14.20;99.90;;;;;;5097768;28;21012;-68
2022/11/06 10:46:36;;;;;;;14.00;12.80;;;14.20;99.90;;;;;;5092457;28;20537;-68
2022/11/06 10:49:11;;;;;;;13.73;12.63;;;14.00;99.90;;;;;;5094105;28;20454;-68
2022/11/06 10:51:57;;;;;;;13.43;12.33;;;14.00;99.90;;;;;;5100873;28;20868;-69
2022/11/06 10:54:41;;;;;;;12.93;12.03;;;14.10;99.90;;;;;;5093941;28;20485;-67
2022/11/06 10:57:23;;;;;;;12.40;11.70;;;14.00;99.90;;;;;;5092228;28;20470;-69
2022/11/06 10:59:50;;;;;;;12.03;11.27;;;14.10;99.90;;;;;;5097830;28;20457;-69
2022/11/06 11:02:26;;;;;;;16.33;12.77;;;14.10;99.90;;;;;;5090307;28;21002;-70
2022/11/06 11:04:53;;;;;;;12.43;11.73;;;14.00;99.90;;;;;;5093049;28;20464;-68
2022/11/06 11:07:20;;;;;;;13.97;12.63;;;13.90;99.90;;;;;;5097461;28;21037;-68
2022/11/06 11:09:49;;;;;;;12.37;11.27;;;13.90;99.90;;;;;;5092568;28;20461;-69
2022/11/06 11:12:21;;;;;;;13.30;12.30;;;13.70;99.90;;;;;;5100996;28;20581;-67
2022/11/06 11:15:06;;;;;;;12.27;11.30;;;13.70;99.90;;;;;;5095380;28;20533;-68
2022/11/06 11:17:34;;;;;;;12.40;11.63;;;13.90;99.90;;;;;;5096829;28;20492;-68
2022/11/06 11:20:01;;;;;;;14.67;12.70;;;14.10;99.90;;;;;;5094153;28;20480;-70
2022/11/06 11:22:28;;;;;;;12.57;11.57;;;14.30;99.90;;;;;;5094120;28;20495;-69
2022/11/06 11:25:02;;;;;;;12.50;11.60;;;14.70;99.90;;;;;;5088725;28;20569;-68
2022/11/06 11:27:30;;;;;;;13.43;12.53;;;14.90;99.90;;;;;;5092388;28;20465;-68
2022/11/06 11:29:57;;;;;;;12.50;11.70;;;15.20;99.90;;;;;;5099474;28;20453;-69
2022/11/06 11:32:24;;;;;;;13.87;12.50;;;15.40;99.90;;;;;;5096025;28;20469;-69
2022/11/06 11:34:53;;;;;;;13.37;12.37;;;15.10;99.90;;;;;;5093915;28;20482;-69
2022/11/06 11:37:27;;;;;;;12.80;12.00;;;14.80;99.90;;;;;;5098613;28;20764;-69
2022/11/06 11:39:53;;;;;;;13.40;12.60;;;14.80;99.90;;;;;;5090816;28;20457;-69
2022/11/06 11:42:27;;;;;;;13.60;11.53;;;14.90;99.90;;;;;;5092788;28;20465;-70
2022/11/06 11:45:21;;;;;;;12.77;11.53;;;14.90;99.90;;;;;;5094932;28;20493;-70
2022/11/06 11:47:50;;;;;;;11.77;11.07;;;15.50;99.90;;;;;;5056854;28;20863;-68
2022/11/06 11:50:32;;;;;;;12.07;11.23;;;15.80;99.90;;;;;;5094400;28;20583;-69
2022/11/06 11:53:04;;;;;;;13.07;12.37;;;16.30;99.90;;;;;;5097979;28;21391;-69
2022/11/06 11:55:36;;;;;;;14.23;12.77;;;16.70;99.90;;;;;;5092647;28;20472;-69
2022/11/06 11:58:14;;;;;;;13.80;12.87;;;16.50;99.90;;;;;;5096015;28;20449;-69
2022/11/06 12:00:51;;;;;;;15.47;13.07;;;16.50;99.90;;;;;;5092025;28;20516;-71
2022/11/06 12:03:20;;;;;;;12.70;12.07;;;16.10;99.90;;;;;;5095839;28;20476;-69
2022/11/06 12:05:47;;;;;;;14.00;13.10;;;15.70;99.90;;;;;;5091980;28;20484;-69
2022/11/06 12:08:23;;;;;;;13.43;12.70;;;15.20;99.90;;;;;;5082568;28;20472;-69
2022/11/06 12:10:50;;;;;;;13.80;12.43;;;15.00;99.90;;;;;;5093693;28;20462;-70
2022/11/06 12:13:21;;;;;;;13.33;12.43;;;14.70;99.90;;;;;;5088886;28;20458;-69
2022/11/06 12:15:53;;;;;;;14.27;12.70;;;14.40;99.90;;;;;;5092647;28;20468;-70
2022/11/06 12:18:25;;;;;;;14.30;13.27;;;14.50;99.90;;;;;;5086462;28;20453;-70
2022/11/06 12:20:57;;;;;;;14.67;13.43;;;14.80;99.90;;;;;;5093455;28;20488;-71
2022/11/06 12:23:29;;;;;;;13.87;13.20;;;14.90;99.90;;;;;;5090520;28;20860;-70
2022/11/06 12:26:03;;;;;;;15.50;14.30;;;14.90;99.90;;;;;;5095244;28;20462;-72
2022/11/06 12:28:35;;;;;;;14.20;13.33;;;14.80;99.90;;;;;;5093690;28;20540;-69
2022/11/06 12:31:09;;;;;;;14.40;13.23;;;14.70;99.90;;;;;;5095768;28;20470;-69
2022/11/06 12:33:39;;;;;;;14.83;13.27;;;14.80;99.90;;;;;;5096961;28;20970;-69
2022/11/06 12:36:09;;;;;;;14.60;13.37;;;14.60;99.90;;;;;;5089748;28;20463;-72
2022/11/06 12:38:42;;;;;;;13.47;12.70;;;14.30;99.90;;;;;;5097191;28;20806;-69
2022/11/06 12:41:13;;;;;;;15.03;12.23;;;14.60;99.90;;;;;;5089106;28;20992;-69
2022/11/06 12:43:44;;;;;;;14.33;13.23;;;14.90;99.90;;;;;;5094614;28;20523;-70
2022/11/06 12:46:23;;;;;;;13.77;12.97;;;15.50;99.90;;;;;;5091504;28;20507;-70
2022/11/06 12:49:12;;;;;;;13.97;12.97;;;15.90;99.90;;;;;;5092441;28;20853;-71
2022/11/06 12:51:49;;;;;;;14.10;13.30;;;15.70;99.90;;;;;;5093085;28;20824;-69
2022/11/06 12:54:31;;;;;;;13.80;12.90;;;15.70;99.90;;;;;;5092826;28;20558;-70
2022/11/06 12:57:13;;;;;;;14.90;13.80;;;15.70;99.90;;;;;;5090423;28;20461;-71
2022/11/06 12:59:55;;;;;;;20.20;13.40;;;15.70;99.90;;;;;;5089565;28;20511;-70
2022/11/06 13:02:34;;;;;;;16.43;15.20;;;15.10;99.90;;;;;;5089014;28;20798;-69
2022/11/06 13:05:07;;;;;;;25.00;22.40;;;14.80;99.90;;;;;;5093786;28;20526;-70
2022/11/06 13:07:56;;;;;;;14.00;13.00;;;14.50;99.90;;;;;;5090855;28;20471;-69
2022/11/06 13:10:31;;;;;;;15.63;14.63;;;14.40;99.90;;;;;;5079315;28;20878;-70
2022/11/06 13:13:08;;;;;;;13.63;12.93;;;14.40;99.90;;;;;;5093705;28;20461;-70